sensor_id;sensor_type;location;lat;lon;timestamp;P1;durP1;ratioP1;P2;durP2;ratioP2
8993;SDS011;4532;50.886;4.700;2023-09-18T00:01:55;8.70;;;6.65;;
8993;SDS011;4532;50.886;4.700;2023-09-18T00:04:23;8.40;;;6.78;;
8993;SDS011;4532;50.886;4.700;2023-09-18T00:06:54;10.00;;;6.95;;
8993;SDS011;4532;50.886;4.700;2023-09-18T00:09:21;8.75;;;7.40;;
8993;SDS011;4532;50.886;4.700;2023-09-18T00:11:50;7.68;;;6.88;;
8993;SDS011;4532;50.886;4.700;2023-09-18T00:14:19;8.10;;;7.03;;
8993;SDS011;4532;50.886;4.700;2023-09-18T00:16:46;11.13;;;7.55;;
8993;SDS011;4532;50.886;4.700;2023-09-18T00:19:24;8.20;;;7.40;;
8993;SDS011;4532;50.886;4.700;2023-09-18T00:21:55;11.90;;;7.22;;
8993;SDS011;4532;50.886;4.700;2023-09-18T00:24:27;10.52;;;6.97;;
8993;SDS011;4532;50.886;4.700;2023-09-18T00:26:55;9.55;;;6.95;;
8993;SDS011;4532;50.886;4.700;2023-09-18T00:29:22;11.70;;;7.15;;
8993;SDS011;4532;50.886;4.700;2023-09-18T00:31:49;9.32;;;7.10;;
8993;SDS011;4532;50.886;4.700;2023-09-18T00:34:21;8.38;;;6.90;;
8993;SDS011;4532;50.886;4.700;2023-09-18T00:36:48;9.13;;;7.55;;
8993;SDS011;4532;50.886;4.700;2023-09-18T00:39:15;8.60;;;7.18;;
8993;SDS011;4532;50.886;4.700;2023-09-18T00:41:45;10.23;;;6.57;;
8993;SDS011;4532;50.886;4.700;2023-09-18T00:44:20;7.97;;;6.78;;
8993;SDS011;4532;50.886;4.700;2023-09-18T00:46:50;7.72;;;6.93;;
8993;SDS011;4532;50.886;4.700;2023-09-18T00:49:26;11.68;;;6.75;;
8993;SDS011;4532;50.886;4.700;2023-09-18T00:51:53;9.85;;;6.80;;
8993;SDS011;4532;50.886;4.700;2023-09-18T00:54:21;8.77;;;6.90;;
8993;SDS011;4532;50.886;4.700;2023-09-18T00:56:48;7.82;;;7.07;;
8993;SDS011;4532;50.886;4.700;2023-09-18T00:59:20;8.98;;;6.50;;
8993;SDS011;4532;50.886;4.700;2023-09-18T01:01:48;10.00;;;6.97;;
8993;SDS011;4532;50.886;4.700;2023-09-18T01:04:19;15.55;;;8.07;;
8993;SDS011;4532;50.886;4.700;2023-09-18T01:06:48;11.05;;;6.53;;
8993;SDS011;4532;50.886;4.700;2023-09-18T01:09:21;11.88;;;7.45;;
8993;SDS011;4532;50.886;4.700;2023-09-18T01:11:54;12.57;;;8.23;;
8993;SDS011;4532;50.886;4.700;2023-09-18T01:17:22;8.63;;;7.47;;
8993;SDS011;4532;50.886;4.700;2023-09-18T01:19:51;11.73;;;6.95;;
8993;SDS011;4532;50.886;4.700;2023-09-18T01:22:18;10.23;;;7.18;;
8993;SDS011;4532;50.886;4.700;2023-09-18T01:24:46;11.98;;;7.45;;
8993;SDS011;4532;50.886;4.700;2023-09-18T01:27:17;14.68;;;7.30;;
8993;SDS011;4532;50.886;4.700;2023-09-18T01:29:47;10.20;;;6.97;;
8993;SDS011;4532;50.886;4.700;2023-09-18T01:32:15;12.57;;;7.45;;
8993;SDS011;4532;50.886;4.700;2023-09-18T01:34:51;10.68;;;7.20;;
8993;SDS011;4532;50.886;4.700;2023-09-18T01:37:21;11.15;;;7.35;;
8993;SDS011;4532;50.886;4.700;2023-09-18T01:43:04;8.52;;;6.70;;
8993;SDS011;4532;50.886;4.700;2023-09-18T01:45:31;13.23;;;7.47;;
8993;SDS011;4532;50.886;4.700;2023-09-18T01:47:59;9.15;;;7.15;;
8993;SDS011;4532;50.886;4.700;2023-09-18T01:50:29;9.50;;;6.57;;
8993;SDS011;4532;50.886;4.700;2023-09-18T01:52:58;9.75;;;7.00;;
8993;SDS011;4532;50.886;4.700;2023-09-18T01:55:25;10.57;;;7.28;;
8993;SDS011;4532;50.886;4.700;2023-09-18T01:57:53;10.45;;;7.40;;
8993;SDS011;4532;50.886;4.700;2023-09-18T02:00:22;10.07;;;7.25;;
8993;SDS011;4532;50.886;4.700;2023-09-18T02:02:50;9.60;;;7.15;;
8993;SDS011;4532;50.886;4.700;2023-09-18T02:05:37;8.63;;;6.97;;
8993;SDS011;4532;50.886;4.700;2023-09-18T02:08:08;8.50;;;6.60;;
8993;SDS011;4532;50.886;4.700;2023-09-18T02:10:38;10.40;;;7.55;;
8993;SDS011;4532;50.886;4.700;2023-09-18T02:13:05;9.80;;;7.45;;
8993;SDS011;4532;50.886;4.700;2023-09-18T02:15:32;13.27;;;8.27;;
8993;SDS011;4532;50.886;4.700;2023-09-18T02:18:04;9.93;;;7.95;;
8993;SDS011;4532;50.886;4.700;2023-09-18T02:20:31;11.18;;;7.53;;
8993;SDS011;4532;50.886;4.700;2023-09-18T02:23:07;10.57;;;7.45;;
8993;SDS011;4532;50.886;4.700;2023-09-18T02:25:39;10.63;;;7.75;;
8993;SDS011;4532;50.886;4.700;2023-09-18T02:28:07;9.20;;;7.20;;
8993;SDS011;4532;50.886;4.700;2023-09-18T02:30:34;9.52;;;7.55;;
8993;SDS011;4532;50.886;4.700;2023-09-18T02:33:04;9.32;;;7.05;;
8993;SDS011;4532;50.886;4.700;2023-09-18T02:35:33;9.98;;;7.50;;
8993;SDS011;4532;50.886;4.700;2023-09-18T02:38:05;11.75;;;7.97;;
8993;SDS011;4532;50.886;4.700;2023-09-18T02:40:35;11.73;;;7.70;;
8993;SDS011;4532;50.886;4.700;2023-09-18T02:43:06;11.48;;;7.18;;
8993;SDS011;4532;50.886;4.700;2023-09-18T02:45:36;9.00;;;8.10;;
8993;SDS011;4532;50.886;4.700;2023-09-18T02:48:03;9.45;;;7.05;;
8993;SDS011;4532;50.886;4.700;2023-09-18T02:50:33;10.95;;;8.00;;
8993;SDS011;4532;50.886;4.700;2023-09-18T02:53:01;11.68;;;7.80;;
8993;SDS011;4532;50.886;4.700;2023-09-18T02:55:28;11.35;;;7.75;;
8993;SDS011;4532;50.886;4.700;2023-09-18T02:57:55;11.55;;;7.97;;
8993;SDS011;4532;50.886;4.700;2023-09-18T03:00:22;11.30;;;7.65;;
8993;SDS011;4532;50.886;4.700;2023-09-18T03:03:08;9.68;;;7.30;;
8993;SDS011;4532;50.886;4.700;2023-09-18T03:05:37;8.50;;;6.72;;
8993;SDS011;4532;50.886;4.700;2023-09-18T03:08:08;9.23;;;6.88;;
8993;SDS011;4532;50.886;4.700;2023-09-18T03:10:38;8.00;;;6.10;;
8993;SDS011;4532;50.886;4.700;2023-09-18T03:13:07;8.00;;;6.63;;
8993;SDS011;4532;50.886;4.700;2023-09-18T03:15:35;7.70;;;6.05;;
8993;SDS011;4532;50.886;4.700;2023-09-18T03:18:04;11.77;;;6.65;;
8993;SDS011;4532;50.886;4.700;2023-09-18T03:20:35;9.45;;;6.70;;
8993;SDS011;4532;50.886;4.700;2023-09-18T03:23:03;8.15;;;5.53;;
8993;SDS011;4532;50.886;4.700;2023-09-18T03:25:33;7.70;;;5.40;;
8993;SDS011;4532;50.886;4.700;2023-09-18T03:28:17;9.50;;;6.38;;
8993;SDS011;4532;50.886;4.700;2023-09-18T03:30:49;6.38;;;5.78;;
8993;SDS011;4532;50.886;4.700;2023-09-18T03:33:22;7.07;;;5.50;;
8993;SDS011;4532;50.886;4.700;2023-09-18T03:35:52;7.45;;;5.75;;
8993;SDS011;4532;50.886;4.700;2023-09-18T03:38:21;6.50;;;5.13;;
8993;SDS011;4532;50.886;4.700;2023-09-18T03:40:51;7.25;;;5.20;;
8993;SDS011;4532;50.886;4.700;2023-09-18T03:43:19;7.03;;;4.45;;
8993;SDS011;4532;50.886;4.700;2023-09-18T03:45:46;7.18;;;4.03;;
8993;SDS011;4532;50.886;4.700;2023-09-18T03:48:16;7.15;;;3.97;;
8993;SDS011;4532;50.886;4.700;2023-09-18T03:50:43;5.53;;;3.45;;
8993;SDS011;4532;50.886;4.700;2023-09-18T03:53:10;4.25;;;3.33;;
8993;SDS011;4532;50.886;4.700;2023-09-18T03:55:38;5.28;;;2.83;;
8993;SDS011;4532;50.886;4.700;2023-09-18T03:58:05;5.47;;;2.60;;
8993;SDS011;4532;50.886;4.700;2023-09-18T04:00:32;7.15;;;2.60;;
8993;SDS011;4532;50.886;4.700;2023-09-18T04:03:02;3.33;;;2.20;;
8993;SDS011;4532;50.886;4.700;2023-09-18T04:05:30;3.65;;;2.20;;
8993;SDS011;4532;50.886;4.700;2023-09-18T04:07:57;2.92;;;2.10;;
8993;SDS011;4532;50.886;4.700;2023-09-18T04:10:25;4.43;;;2.47;;
8993;SDS011;4532;50.886;4.700;2023-09-18T04:12:54;4.00;;;1.98;;
8993;SDS011;4532;50.886;4.700;2023-09-18T04:15:22;6.95;;;2.20;;
8993;SDS011;4532;50.886;4.700;2023-09-18T04:17:49;7.65;;;2.20;;
8993;SDS011;4532;50.886;4.700;2023-09-18T04:20:19;6.20;;;2.22;;
8993;SDS011;4532;50.886;4.700;2023-09-18T04:22:47;6.35;;;2.20;;
8993;SDS011;4532;50.886;4.700;2023-09-18T04:25:21;2.25;;;1.60;;
8993;SDS011;4532;50.886;4.700;2023-09-18T04:27:51;5.50;;;1.70;;
8993;SDS011;4532;50.886;4.700;2023-09-18T04:30:25;2.30;;;1.67;;
8993;SDS011;4532;50.886;4.700;2023-09-18T04:32:52;5.18;;;1.77;;
8993;SDS011;4532;50.886;4.700;2023-09-18T04:35:22;2.63;;;1.60;;
8993;SDS011;4532;50.886;4.700;2023-09-18T04:37:55;5.32;;;1.85;;
8993;SDS011;4532;50.886;4.700;2023-09-18T04:40:25;3.47;;;1.70;;
8993;SDS011;4532;50.886;4.700;2023-09-18T04:42:58;2.08;;;1.38;;
8993;SDS011;4532;50.886;4.700;2023-09-18T04:45:26;2.25;;;1.45;;
8993;SDS011;4532;50.886;4.700;2023-09-18T04:47:53;2.65;;;1.63;;
8993;SDS011;4532;50.886;4.700;2023-09-18T04:50:25;3.63;;;1.60;;
8993;SDS011;4532;50.886;4.700;2023-09-18T04:52:58;5.47;;;1.67;;
8993;SDS011;4532;50.886;4.700;2023-09-18T04:55:25;3.55;;;1.73;;
8993;SDS011;4532;50.886;4.700;2023-09-18T04:57:55;5.38;;;1.60;;
8993;SDS011;4532;50.886;4.700;2023-09-18T05:00:24;3.42;;;1.65;;
8993;SDS011;4532;50.886;4.700;2023-09-18T05:02:55;3.85;;;1.60;;
8993;SDS011;4532;50.886;4.700;2023-09-18T05:05:22;2.55;;;1.30;;
8993;SDS011;4532;50.886;4.700;2023-09-18T05:07:50;3.30;;;1.77;;
8993;SDS011;4532;50.886;4.700;2023-09-18T05:10:19;3.25;;;1.52;;
8993;SDS011;4532;50.886;4.700;2023-09-18T05:12:49;5.18;;;1.67;;
8993;SDS011;4532;50.886;4.700;2023-09-18T05:15:25;3.47;;;1.90;;
8993;SDS011;4532;50.886;4.700;2023-09-18T05:17:55;4.78;;;1.88;;
8993;SDS011;4532;50.886;4.700;2023-09-18T05:20:27;5.38;;;2.00;;
8993;SDS011;4532;50.886;4.700;2023-09-18T05:22:56;3.95;;;1.60;;
8993;SDS011;4532;50.886;4.700;2023-09-18T05:25:24;3.80;;;1.80;;
8993;SDS011;4532;50.886;4.700;2023-09-18T05:27:53;3.55;;;1.70;;
8993;SDS011;4532;50.886;4.700;2023-09-18T05:30:31;3.95;;;1.90;;
8993;SDS011;4532;50.886;4.700;2023-09-18T05:33:06;4.13;;;2.08;;
8993;SDS011;4532;50.886;4.700;2023-09-18T05:35:39;5.68;;;1.90;;
8993;SDS011;4532;50.886;4.700;2023-09-18T05:38:11;4.45;;;2.03;;
8993;SDS011;4532;50.886;4.700;2023-09-18T05:40:40;5.32;;;1.60;;
8993;SDS011;4532;50.886;4.700;2023-09-18T05:43:08;7.38;;;2.05;;
8993;SDS011;4532;50.886;4.700;2023-09-18T05:45:38;4.28;;;2.08;;
8993;SDS011;4532;50.886;4.700;2023-09-18T05:48:06;2.75;;;2.00;;
8993;SDS011;4532;50.886;4.700;2023-09-18T05:50:36;5.40;;;2.13;;
8993;SDS011;4532;50.886;4.700;2023-09-18T05:53:04;8.95;;;1.90;;
8993;SDS011;4532;50.886;4.700;2023-09-18T05:55:34;8.68;;;2.30;;
8993;SDS011;4532;50.886;4.700;2023-09-18T05:58:04;5.90;;;1.80;;
8993;SDS011;4532;50.886;4.700;2023-09-18T06:00:33;4.80;;;2.20;;
8993;SDS011;4532;50.886;4.700;2023-09-18T06:03:03;5.85;;;1.98;;
8993;SDS011;4532;50.886;4.700;2023-09-18T06:05:33;5.20;;;2.00;;
8993;SDS011;4532;50.886;4.700;2023-09-18T06:08:01;3.20;;;1.90;;
8993;SDS011;4532;50.886;4.700;2023-09-18T06:10:28;6.35;;;2.50;;
8993;SDS011;4532;50.886;4.700;2023-09-18T06:12:56;5.82;;;1.70;;
8993;SDS011;4532;50.886;4.700;2023-09-18T06:15:26;2.67;;;1.90;;
8993;SDS011;4532;50.886;4.700;2023-09-18T06:17:56;4.45;;;1.65;;
8993;SDS011;4532;50.886;4.700;2023-09-18T06:20:23;4.10;;;1.85;;
8993;SDS011;4532;50.886;4.700;2023-09-18T06:22:51;4.60;;;1.65;;
8993;SDS011;4532;50.886;4.700;2023-09-18T06:25:18;4.15;;;1.90;;
8993;SDS011;4532;50.886;4.700;2023-09-18T06:27:46;4.70;;;1.90;;
8993;SDS011;4532;50.886;4.700;2023-09-18T06:30:13;6.85;;;1.70;;
8993;SDS011;4532;50.886;4.700;2023-09-18T06:32:43;5.63;;;1.98;;
8993;SDS011;4532;50.886;4.700;2023-09-18T06:35:14;6.22;;;1.88;;
8993;SDS011;4532;50.886;4.700;2023-09-18T06:37:41;6.93;;;1.83;;
8993;SDS011;4532;50.886;4.700;2023-09-18T06:40:13;6.75;;;1.75;;
8993;SDS011;4532;50.886;4.700;2023-09-18T06:42:45;4.35;;;1.70;;
8993;SDS011;4532;50.886;4.700;2023-09-18T06:45:13;4.03;;;1.98;;
8993;SDS011;4532;50.886;4.700;2023-09-18T06:47:42;3.78;;;1.58;;
8993;SDS011;4532;50.886;4.700;2023-09-18T06:50:12;2.97;;;1.40;;
8993;SDS011;4532;50.886;4.700;2023-09-18T06:52:39;6.28;;;2.13;;
8993;SDS011;4532;50.886;4.700;2023-09-18T06:55:07;6.70;;;2.13;;
8993;SDS011;4532;50.886;4.700;2023-09-18T06:57:35;2.55;;;1.65;;
8993;SDS011;4532;50.886;4.700;2023-09-18T07:00:05;4.95;;;1.70;;
8993;SDS011;4532;50.886;4.700;2023-09-18T07:02:33;2.80;;;1.80;;
8993;SDS011;4532;50.886;4.700;2023-09-18T07:05:03;4.18;;;1.90;;
8993;SDS011;4532;50.886;4.700;2023-09-18T07:07:31;4.72;;;2.20;;
8993;SDS011;4532;50.886;4.700;2023-09-18T07:10:01;4.20;;;1.92;;
8993;SDS011;4532;50.886;4.700;2023-09-18T07:12:33;5.28;;;1.80;;
8993;SDS011;4532;50.886;4.700;2023-09-18T07:15:07;7.75;;;2.38;;
8993;SDS011;4532;50.886;4.700;2023-09-18T07:17:39;3.15;;;1.83;;
8993;SDS011;4532;50.886;4.700;2023-09-18T07:20:09;4.13;;;1.85;;
8993;SDS011;4532;50.886;4.700;2023-09-18T07:25:14;18.52;;;3.55;;
8993;SDS011;4532;50.886;4.700;2023-09-18T07:27:42;8.63;;;2.20;;
8993;SDS011;4532;50.886;4.700;2023-09-18T07:30:13;2.92;;;1.75;;
8993;SDS011;4532;50.886;4.700;2023-09-18T07:32:48;5.07;;;2.17;;
8993;SDS011;4532;50.886;4.700;2023-09-18T07:35:15;11.70;;;2.08;;
8993;SDS011;4532;50.886;4.700;2023-09-18T07:37:43;6.25;;;2.22;;
8993;SDS011;4532;50.886;4.700;2023-09-18T07:40:12;4.75;;;2.60;;
8993;SDS011;4532;50.886;4.700;2023-09-18T07:42:42;5.18;;;2.22;;
8993;SDS011;4532;50.886;4.700;2023-09-18T07:45:12;4.30;;;2.13;;
8993;SDS011;4532;50.886;4.700;2023-09-18T07:47:40;6.55;;;2.38;;
8993;SDS011;4532;50.886;4.700;2023-09-18T07:50:07;5.18;;;2.40;;
8993;SDS011;4532;50.886;4.700;2023-09-18T07:52:37;9.27;;;2.33;;
8993;SDS011;4532;50.886;4.700;2023-09-18T07:55:07;7.55;;;2.50;;
8993;SDS011;4532;50.886;4.700;2023-09-18T07:57:37;5.80;;;2.40;;
8993;SDS011;4532;50.886;4.700;2023-09-18T08:00:05;5.05;;;2.30;;
8993;SDS011;4532;50.886;4.700;2023-09-18T08:02:39;6.22;;;2.10;;
8993;SDS011;4532;50.886;4.700;2023-09-18T08:05:12;5.57;;;2.03;;
8993;SDS011;4532;50.886;4.700;2023-09-18T08:07:41;6.07;;;2.45;;
8993;SDS011;4532;50.886;4.700;2023-09-18T08:10:11;7.03;;;2.58;;
8993;SDS011;4532;50.886;4.700;2023-09-18T08:12:39;5.32;;;2.47;;
8993;SDS011;4532;50.886;4.700;2023-09-18T08:15:06;6.82;;;2.33;;
8993;SDS011;4532;50.886;4.700;2023-09-18T08:17:37;4.47;;;2.42;;
8993;SDS011;4532;50.886;4.700;2023-09-18T08:20:09;3.55;;;1.98;;
8993;SDS011;4532;50.886;4.700;2023-09-18T08:22:43;4.07;;;1.95;;
8993;SDS011;4532;50.886;4.700;2023-09-18T08:25:12;10.05;;;2.97;;
8993;SDS011;4532;50.886;4.700;2023-09-18T08:27:42;6.47;;;2.47;;
8993;SDS011;4532;50.886;4.700;2023-09-18T08:30:14;5.07;;;2.00;;
8993;SDS011;4532;50.886;4.700;2023-09-18T08:32:44;4.47;;;2.00;;
8993;SDS011;4532;50.886;4.700;2023-09-18T08:35:11;2.88;;;2.20;;
8993;SDS011;4532;50.886;4.700;2023-09-18T08:37:42;4.50;;;2.10;;
8993;SDS011;4532;50.886;4.700;2023-09-18T08:40:10;7.70;;;2.58;;
8993;SDS011;4532;50.886;4.700;2023-09-18T08:42:50;3.38;;;2.25;;
8993;SDS011;4532;50.886;4.700;2023-09-18T08:45:30;6.22;;;2.60;;
8993;SDS011;4532;50.886;4.700;2023-09-18T08:48:04;8.18;;;2.45;;
8993;SDS011;4532;50.886;4.700;2023-09-18T08:50:33;4.18;;;2.65;;
8993;SDS011;4532;50.886;4.700;2023-09-18T08:53:01;7.97;;;2.90;;
8993;SDS011;4532;50.886;4.700;2023-09-18T08:55:33;6.32;;;2.75;;
8993;SDS011;4532;50.886;4.700;2023-09-18T08:58:03;6.20;;;2.80;;
8993;SDS011;4532;50.886;4.700;2023-09-18T09:00:30;6.40;;;2.80;;
8993;SDS011;4532;50.886;4.700;2023-09-18T09:02:58;7.53;;;2.40;;
8993;SDS011;4532;50.886;4.700;2023-09-18T09:05:28;6.13;;;2.63;;
8993;SDS011;4532;50.886;4.700;2023-09-18T09:07:58;7.80;;;2.83;;
8993;SDS011;4532;50.886;4.700;2023-09-18T09:10:28;9.30;;;2.90;;
8993;SDS011;4532;50.886;4.700;2023-09-18T09:12:58;5.45;;;2.92;;
8993;SDS011;4532;50.886;4.700;2023-09-18T09:15:32;9.45;;;3.20;;
8993;SDS011;4532;50.886;4.700;2023-09-18T09:18:15;6.43;;;2.80;;
8993;SDS011;4532;50.886;4.700;2023-09-18T09:20:55;6.85;;;2.60;;
8993;SDS011;4532;50.886;4.700;2023-09-18T09:24:13;5.35;;;2.63;;
8993;SDS011;4532;50.886;4.700;2023-09-18T09:26:19;8.15;;;3.10;;
8993;SDS011;4532;50.886;4.700;2023-09-18T09:28:49;5.13;;;2.80;;
8993;SDS011;4532;50.886;4.700;2023-09-18T09:33:56;6.25;;;2.47;;
8993;SDS011;4532;50.886;4.700;2023-09-18T09:36:28;8.68;;;3.20;;
8993;SDS011;4532;50.886;4.700;2023-09-18T09:38:59;5.85;;;2.75;;
8993;SDS011;4532;50.886;4.700;2023-09-18T09:41:27;14.50;;;3.78;;
8993;SDS011;4532;50.886;4.700;2023-09-18T09:43:57;5.47;;;3.35;;
8993;SDS011;4532;50.886;4.700;2023-09-18T09:46:27;7.43;;;2.90;;
8993;SDS011;4532;50.886;4.700;2023-09-18T09:49:02;4.57;;;2.95;;
8993;SDS011;4532;50.886;4.700;2023-09-18T09:51:33;7.35;;;2.72;;
8993;SDS011;4532;50.886;4.700;2023-09-18T09:54:03;8.85;;;2.83;;
8993;SDS011;4532;50.886;4.700;2023-09-18T09:56:49;7.50;;;3.15;;
8993;SDS011;4532;50.886;4.700;2023-09-18T09:59:22;7.40;;;2.92;;
8993;SDS011;4532;50.886;4.700;2023-09-18T10:01:52;5.60;;;2.70;;
8993;SDS011;4532;50.886;4.700;2023-09-18T10:04:25;9.10;;;3.00;;
8993;SDS011;4532;50.886;4.700;2023-09-18T10:06:56;5.72;;;2.90;;
8993;SDS011;4532;50.886;4.700;2023-09-18T10:09:34;9.65;;;3.10;;
8993;SDS011;4532;50.886;4.700;2023-09-18T10:12:06;12.23;;;3.50;;
8993;SDS011;4532;50.886;4.700;2023-09-18T10:14:37;18.02;;;4.45;;
8993;SDS011;4532;50.886;4.700;2023-09-18T10:17:25;12.90;;;3.65;;
8993;SDS011;4532;50.886;4.700;2023-09-18T10:20:01;6.38;;;3.20;;
8993;SDS011;4532;50.886;4.700;2023-09-18T10:22:51;4.65;;;2.85;;
8993;SDS011;4532;50.886;4.700;2023-09-18T10:25:24;5.05;;;2.95;;
8993;SDS011;4532;50.886;4.700;2023-09-18T10:27:54;6.45;;;2.80;;
8993;SDS011;4532;50.886;4.700;2023-09-18T10:30:29;4.72;;;2.47;;
8993;SDS011;4532;50.886;4.700;2023-09-18T10:33:02;8.05;;;2.80;;
8993;SDS011;4532;50.886;4.700;2023-09-18T10:35:32;6.05;;;2.65;;
8993;SDS011;4532;50.886;4.700;2023-09-18T10:38:01;6.57;;;2.95;;
8993;SDS011;4532;50.886;4.700;2023-09-18T10:40:34;7.43;;;2.75;;
8993;SDS011;4532;50.886;4.700;2023-09-18T10:43:06;6.43;;;2.80;;
8993;SDS011;4532;50.886;4.700;2023-09-18T10:45:38;10.15;;;2.85;;
8993;SDS011;4532;50.886;4.700;2023-09-18T10:48:13;5.88;;;2.55;;
8993;SDS011;4532;50.886;4.700;2023-09-18T10:50:45;5.82;;;2.60;;
8993;SDS011;4532;50.886;4.700;2023-09-18T10:53:14;7.40;;;2.88;;
8993;SDS011;4532;50.886;4.700;2023-09-18T10:55:44;9.85;;;3.75;;
8993;SDS011;4532;50.886;4.700;2023-09-18T10:58:15;4.35;;;2.60;;
8993;SDS011;4532;50.886;4.700;2023-09-18T11:00:53;6.28;;;2.60;;
8993;SDS011;4532;50.886;4.700;2023-09-18T11:03:22;12.43;;;2.83;;
8993;SDS011;4532;50.886;4.700;2023-09-18T11:06:06;5.07;;;2.65;;
8993;SDS011;4532;50.886;4.700;2023-09-18T11:08:43;5.53;;;2.33;;
8993;SDS011;4532;50.886;4.700;2023-09-18T11:11:17;4.18;;;2.55;;
8993;SDS011;4532;50.886;4.700;2023-09-18T11:13:52;6.97;;;2.75;;
8993;SDS011;4532;50.886;4.700;2023-09-18T11:21:28;17.05;;;3.35;;
8993;SDS011;4532;50.886;4.700;2023-09-18T11:23:57;8.05;;;2.58;;
8993;SDS011;4532;50.886;4.700;2023-09-18T11:26:35;7.55;;;2.65;;
8993;SDS011;4532;50.886;4.700;2023-09-18T11:29:05;7.07;;;2.55;;
8993;SDS011;4532;50.886;4.700;2023-09-18T11:36:49;7.95;;;2.97;;
8993;SDS011;4532;50.886;4.700;2023-09-18T11:39:34;10.43;;;2.50;;
8993;SDS011;4532;50.886;4.700;2023-09-18T11:42:06;6.53;;;2.60;;
8993;SDS011;4532;50.886;4.700;2023-09-18T11:44:40;4.80;;;2.50;;
8993;SDS011;4532;50.886;4.700;2023-09-18T11:47:12;10.70;;;3.05;;
8993;SDS011;4532;50.886;4.700;2023-09-18T11:49:54;27.08;;;4.72;;
8993;SDS011;4532;50.886;4.700;2023-09-18T11:52:33;32.63;;;5.88;;
8993;SDS011;4532;50.886;4.700;2023-09-18T11:55:04;21.55;;;3.95;;
8993;SDS011;4532;50.886;4.700;2023-09-18T11:57:38;19.08;;;4.60;;
8993;SDS011;4532;50.886;4.700;2023-09-18T12:00:19;9.65;;;3.08;;
8993;SDS011;4532;50.886;4.700;2023-09-18T12:02:51;10.50;;;2.92;;
8993;SDS011;4532;50.886;4.700;2023-09-18T12:05:22;4.70;;;2.83;;
8993;SDS011;4532;50.886;4.700;2023-09-18T12:07:53;8.82;;;2.53;;
8993;SDS011;4532;50.886;4.700;2023-09-18T12:10:23;7.65;;;2.95;;
8993;SDS011;4532;50.886;4.700;2023-09-18T12:12:51;8.57;;;2.90;;
8993;SDS011;4532;50.886;4.700;2023-09-18T12:15:19;6.03;;;2.78;;
8993;SDS011;4532;50.886;4.700;2023-09-18T12:17:57;5.07;;;2.47;;
8993;SDS011;4532;50.886;4.700;2023-09-18T12:20:33;6.63;;;2.72;;
8993;SDS011;4532;50.886;4.700;2023-09-18T12:23:09;23.63;;;4.18;;
8993;SDS011;4532;50.886;4.700;2023-09-18T12:25:36;18.40;;;3.63;;
8993;SDS011;4532;50.886;4.700;2023-09-18T12:28:05;26.02;;;5.13;;
8993;SDS011;4532;50.886;4.700;2023-09-18T12:30:33;18.75;;;4.07;;
8993;SDS011;4532;50.886;4.700;2023-09-18T12:33:01;8.13;;;2.47;;
8993;SDS011;4532;50.886;4.700;2023-09-18T12:35:34;8.10;;;2.80;;
8993;SDS011;4532;50.886;4.700;2023-09-18T12:38:02;4.57;;;2.22;;
8993;SDS011;4532;50.886;4.700;2023-09-18T12:40:40;8.30;;;2.40;;
8993;SDS011;4532;50.886;4.700;2023-09-18T12:43:10;8.48;;;2.60;;
8993;SDS011;4532;50.886;4.700;2023-09-18T12:45:39;3.50;;;2.08;;
8993;SDS011;4532;50.886;4.700;2023-09-18T12:48:09;3.78;;;2.20;;
8993;SDS011;4532;50.886;4.700;2023-09-18T12:50:39;5.50;;;2.50;;
8993;SDS011;4532;50.886;4.700;2023-09-18T12:53:13;34.67;;;5.00;;
8993;SDS011;4532;50.886;4.700;2023-09-18T12:55:42;19.35;;;3.90;;
8993;SDS011;4532;50.886;4.700;2023-09-18T12:58:12;29.17;;;4.68;;
8993;SDS011;4532;50.886;4.700;2023-09-18T13:00:47;11.48;;;3.13;;
8993;SDS011;4532;50.886;4.700;2023-09-18T13:03:18;10.57;;;2.53;;
8993;SDS011;4532;50.886;4.700;2023-09-18T13:05:54;7.65;;;2.10;;
8993;SDS011;4532;50.886;4.700;2023-09-18T13:08:37;5.78;;;2.30;;
8993;SDS011;4532;50.886;4.700;2023-09-18T13:11:07;7.75;;;2.08;;
8993;SDS011;4532;50.886;4.700;2023-09-18T13:13:37;12.02;;;2.60;;
8993;SDS011;4532;50.886;4.700;2023-09-18T13:16:05;6.22;;;1.95;;
8993;SDS011;4532;50.886;4.700;2023-09-18T13:18:35;6.85;;;2.33;;
8993;SDS011;4532;50.886;4.700;2023-09-18T13:21:10;3.58;;;1.73;;
8993;SDS011;4532;50.886;4.700;2023-09-18T13:23:41;3.20;;;1.60;;
8993;SDS011;4532;50.886;4.700;2023-09-18T13:26:08;4.70;;;2.30;;
8993;SDS011;4532;50.886;4.700;2023-09-18T13:28:35;5.38;;;2.13;;
8993;SDS011;4532;50.886;4.700;2023-09-18T13:31:06;6.97;;;1.70;;
8993;SDS011;4532;50.886;4.700;2023-09-18T13:33:40;4.10;;;2.05;;
8993;SDS011;4532;50.886;4.700;2023-09-18T13:36:08;5.13;;;1.98;;
8993;SDS011;4532;50.886;4.700;2023-09-18T13:38:35;23.92;;;3.95;;
8993;SDS011;4532;50.886;4.700;2023-09-18T13:41:02;5.90;;;2.00;;
8993;SDS011;4532;50.886;4.700;2023-09-18T13:43:32;7.88;;;1.92;;
8993;SDS011;4532;50.886;4.700;2023-09-18T13:46:02;8.23;;;1.85;;
8993;SDS011;4532;50.886;4.700;2023-09-18T13:48:37;5.85;;;1.90;;
8993;SDS011;4532;50.886;4.700;2023-09-18T13:51:05;5.13;;;1.65;;
8993;SDS011;4532;50.886;4.700;2023-09-18T13:53:34;4.55;;;1.65;;
8993;SDS011;4532;50.886;4.700;2023-09-18T13:56:05;5.43;;;2.03;;
8993;SDS011;4532;50.886;4.700;2023-09-18T13:58:34;4.18;;;1.98;;
8993;SDS011;4532;50.886;4.700;2023-09-18T14:01:04;7.43;;;2.17;;
8993;SDS011;4532;50.886;4.700;2023-09-18T14:03:37;1.83;;;1.30;;
8993;SDS011;4532;50.886;4.700;2023-09-18T14:06:04;6.70;;;2.00;;
8993;SDS011;4532;50.886;4.700;2023-09-18T14:08:32;3.67;;;1.92;;
8993;SDS011;4532;50.886;4.700;2023-09-18T14:11:00;3.58;;;1.70;;
8993;SDS011;4532;50.886;4.700;2023-09-18T14:13:31;3.25;;;1.52;;
8993;SDS011;4532;50.886;4.700;2023-09-18T14:15:58;11.35;;;2.08;;
8993;SDS011;4532;50.886;4.700;2023-09-18T14:18:28;8.20;;;2.05;;
8993;SDS011;4532;50.886;4.700;2023-09-18T14:20:56;9.85;;;2.40;;
8993;SDS011;4532;50.886;4.700;2023-09-18T14:23:23;5.00;;;1.60;;
8993;SDS011;4532;50.886;4.700;2023-09-18T14:25:50;9.63;;;1.98;;
8993;SDS011;4532;50.886;4.700;2023-09-18T14:28:20;10.00;;;2.28;;
8993;SDS011;4532;50.886;4.700;2023-09-18T14:30:47;6.75;;;2.03;;
8993;SDS011;4532;50.886;4.700;2023-09-18T14:33:15;3.35;;;1.90;;
8993;SDS011;4532;50.886;4.700;2023-09-18T14:35:47;5.75;;;2.03;;
8993;SDS011;4532;50.886;4.700;2023-09-18T14:38:17;5.80;;;2.00;;
8993;SDS011;4532;50.886;4.700;2023-09-18T14:40:44;6.30;;;2.03;;
8993;SDS011;4532;50.886;4.700;2023-09-18T14:43:14;3.10;;;1.83;;
8993;SDS011;4532;50.886;4.700;2023-09-18T14:45:44;2.67;;;1.80;;
8993;SDS011;4532;50.886;4.700;2023-09-18T14:48:11;5.78;;;1.95;;
8993;SDS011;4532;50.886;4.700;2023-09-18T14:50:39;14.18;;;1.90;;
8993;SDS011;4532;50.886;4.700;2023-09-18T14:53:06;5.35;;;1.73;;
8993;SDS011;4532;50.886;4.700;2023-09-18T14:55:35;26.27;;;3.25;;
8993;SDS011;4532;50.886;4.700;2023-09-18T14:58:02;9.40;;;2.22;;
8993;SDS011;4532;50.886;4.700;2023-09-18T15:00:32;6.15;;;2.10;;
8993;SDS011;4532;50.886;4.700;2023-09-18T15:03:04;4.72;;;2.20;;
8993;SDS011;4532;50.886;4.700;2023-09-18T15:05:34;7.38;;;2.17;;
8993;SDS011;4532;50.886;4.700;2023-09-18T15:08:01;6.55;;;2.67;;
8993;SDS011;4532;50.886;4.700;2023-09-18T15:10:31;7.40;;;2.60;;
8993;SDS011;4532;50.886;4.700;2023-09-18T15:13:01;18.10;;;3.88;;
8993;SDS011;4532;50.886;4.700;2023-09-18T15:15:31;7.32;;;2.70;;
8993;SDS011;4532;50.886;4.700;2023-09-18T15:17:58;10.98;;;2.70;;
8993;SDS011;4532;50.886;4.700;2023-09-18T15:20:26;5.60;;;2.17;;
8993;SDS011;4532;50.886;4.700;2023-09-18T15:22:58;5.05;;;2.20;;
8993;SDS011;4532;50.886;4.700;2023-09-18T15:25:25;6.25;;;2.20;;
8993;SDS011;4532;50.886;4.700;2023-09-18T15:27:53;10.63;;;3.03;;
8993;SDS011;4532;50.886;4.700;2023-09-18T15:30:21;3.83;;;1.95;;
8993;SDS011;4532;50.886;4.700;2023-09-18T15:32:52;7.13;;;2.65;;
8993;SDS011;4532;50.886;4.700;2023-09-18T15:35:23;16.25;;;3.22;;
8993;SDS011;4532;50.886;4.700;2023-09-18T15:37:51;10.43;;;3.17;;
8993;SDS011;4532;50.886;4.700;2023-09-18T15:40:20;9.07;;;3.25;;
8993;SDS011;4532;50.886;4.700;2023-09-18T15:42:52;8.73;;;3.45;;
8993;SDS011;4532;50.886;4.700;2023-09-18T15:45:20;4.70;;;2.10;;
8993;SDS011;4532;50.886;4.700;2023-09-18T15:47:47;4.57;;;2.65;;
8993;SDS011;4532;50.886;4.700;2023-09-18T15:50:18;9.45;;;3.17;;
8993;SDS011;4532;50.886;4.700;2023-09-18T15:52:45;4.57;;;2.53;;
8993;SDS011;4532;50.886;4.700;2023-09-18T15:55:12;4.35;;;2.53;;